createdAt,value
2023-01-07T00:01:10.147Z,12.75
2023-01-07T00:03:37.626Z,15.13
2023-01-07T00:06:13.297Z,9.90
2023-01-07T00:08:41.507Z,12.68
2023-01-07T00:11:12.563Z,11.20
2023-01-07T00:13:39.466Z,15.43
2023-01-07T00:16:09.463Z,13.52
2023-01-07T00:18:36.626Z,13.20
2023-01-07T00:21:06.262Z,11.10
2023-01-07T00:23:34.667Z,11.35
2023-01-07T00:26:06.622Z,12.57
2023-01-07T00:28:34.538Z,14.77
2023-01-07T00:31:06.980Z,12.60
2023-01-07T00:33:35.404Z,17.15
2023-01-07T00:36:09.958Z,12.05
2023-01-07T00:38:37.309Z,13.05
2023-01-07T00:43:30.518Z,11.85
2023-01-07T00:45:57.314Z,14.77
2023-01-07T00:48:24.107Z,16.08
2023-01-07T00:50:51.897Z,13.52
2023-01-07T00:53:18.533Z,12.98
2023-01-07T00:55:45.440Z,13.07
2023-01-07T00:58:16.613Z,13.68
2023-01-07T01:00:43.042Z,15.32
2023-01-07T01:03:11.707Z,15.35
2023-01-07T01:05:38.998Z,15.40
2023-01-07T01:08:06.125Z,13.85
2023-01-07T01:10:32.734Z,14.70
2023-01-07T01:13:00.137Z,13.23
2023-01-07T01:17:53.773Z,14.23
2023-01-07T01:20:20.595Z,15.15
2023-01-07T01:22:47.176Z,17.70
2023-01-07T01:25:14.636Z,16.77
2023-01-07T01:30:08.271Z,20.38
2023-01-07T01:32:34.647Z,14.65
2023-01-07T01:35:01.116Z,11.95
2023-01-07T01:37:27.511Z,14.30
2023-01-07T01:39:53.935Z,13.55
2023-01-07T01:42:23.775Z,12.75
2023-01-07T01:44:54.284Z,11.55
2023-01-07T01:47:32.642Z,11.50
2023-01-07T01:50:19.803Z,13.50
2023-01-07T01:53:05.240Z,11.80
2023-01-07T01:55:46.106Z,10.85
2023-01-07T01:58:18.464Z,9.70
2023-01-07T02:00:44.924Z,12.13
2023-01-07T02:03:16.834Z,11.33
2023-01-07T02:05:44.703Z,12.68
2023-01-07T02:08:11.577Z,10.18
2023-01-07T02:10:39.020Z,10.63
2023-01-07T02:16:13.692Z,9.77
2023-01-07T02:19:00.891Z,10.63
2023-01-07T02:21:46.555Z,10.77
2023-01-07T02:24:34.602Z,9.48
2023-01-07T02:27:14.161Z,9.73
2023-01-07T02:30:05.191Z,9.25
2023-01-07T02:32:59.968Z,8.98
2023-01-07T02:35:41.823Z,12.07
2023-01-07T02:38:17.195Z,9.38
2023-01-07T02:41:25.101Z,9.95
2023-01-07T02:43:57.291Z,9.60
2023-01-07T02:46:32.592Z,10.15
2023-01-07T02:49:00.629Z,11.40
2023-01-07T02:51:38.526Z,9.32
2023-01-07T02:54:12.534Z,10.93
2023-01-07T02:57:09.434Z,10.77
2023-01-07T02:59:57.291Z,10.38
2023-01-07T03:02:54.508Z,10.33
2023-01-07T03:05:36.603Z,13.88
2023-01-07T03:08:30.014Z,9.27
2023-01-07T03:11:09.169Z,9.93
2023-01-07T03:13:42.319Z,9.48
2023-01-07T03:16:18.453Z,11.07
2023-01-07T03:18:51.061Z,12.30
2023-01-07T03:21:20.870Z,13.07
2023-01-07T03:23:54.892Z,10.82
2023-01-07T03:26:25.025Z,9.98
2023-01-07T03:28:53.115Z,12.18
2023-01-07T03:31:22.246Z,8.55
2023-01-07T03:33:58.632Z,11.73
2023-01-07T03:36:30.313Z,10.32
2023-01-07T03:38:56.818Z,10.35
2023-01-07T03:41:41.839Z,9.87
2023-01-07T03:44:08.202Z,10.40
2023-01-07T03:46:36.274Z,9.20
2023-01-07T03:49:02.943Z,10.25
2023-01-07T03:51:29.454Z,8.27
2023-01-07T03:53:55.984Z,9.23
2023-01-07T03:56:22.399Z,9.33
2023-01-07T03:58:48.804Z,10.85
2023-01-07T04:01:15.363Z,9.50
2023-01-07T04:03:41.926Z,9.38
2023-01-07T04:06:08.392Z,8.50
2023-01-07T04:08:37.087Z,11.33
2023-01-07T04:11:04.035Z,9.20
2023-01-07T04:13:30.535Z,7.85
2023-01-07T04:15:57.016Z,8.43
2023-01-07T04:18:23.423Z,9.70
2023-01-07T04:20:49.876Z,14.30
2023-01-07T04:23:16.426Z,10.70
2023-01-07T04:25:46.623Z,8.07
2023-01-07T04:28:13.354Z,10.05
2023-01-07T04:30:39.851Z,12.85
2023-01-07T04:33:07.471Z,9.18
2023-01-07T04:35:34.580Z,7.95
2023-01-07T04:38:01.095Z,6.75
2023-01-07T04:40:27.748Z,9.87
2023-01-07T04:42:54.187Z,8.38
2023-01-07T04:45:21.561Z,10.15
2023-01-07T04:50:15.281Z,10.02
2023-01-07T04:55:08.778Z,12.13
2023-01-07T05:00:10.240Z,9.90
2023-01-07T05:02:36.808Z,8.23
2023-01-07T05:05:03.761Z,8.70
2023-01-07T05:07:30.213Z,8.40
2023-01-07T05:09:56.699Z,9.80
2023-01-07T05:12:23.230Z,10.70
2023-01-07T05:14:49.614Z,8.53
2023-01-07T05:17:16.356Z,8.60
2023-01-07T05:19:42.780Z,7.72
2023-01-07T05:22:10.089Z,8.18
2023-01-07T05:24:36.592Z,7.25
2023-01-07T05:27:03.080Z,9.13
2023-01-07T05:29:29.647Z,10.60
2023-01-07T05:31:56.120Z,8.18
2023-01-07T05:34:22.599Z,9.05
2023-01-07T05:36:49.019Z,10.13
2023-01-07T05:39:15.397Z,9.27
2023-01-07T05:41:41.827Z,7.85
2023-01-07T05:44:08.399Z,8.52
2023-01-07T05:46:34.882Z,7.70
2023-01-07T05:49:01.359Z,8.48
2023-01-07T05:51:27.746Z,7.30
2023-01-07T05:53:55.021Z,8.13
2023-01-07T05:56:21.786Z,7.32
2023-01-07T05:58:48.174Z,10.40
2023-01-07T06:01:15.013Z,7.43
2023-01-07T06:03:41.563Z,6.77
2023-01-07T06:06:08.072Z,9.30
2023-01-07T06:08:36.337Z,9.38
2023-01-07T06:11:03.748Z,8.05
2023-01-07T06:16:01.398Z,7.72
2023-01-07T06:18:27.850Z,6.90
2023-01-07T06:20:54.240Z,8.43
2023-01-07T06:23:20.827Z,8.88
2023-01-07T06:25:47.217Z,7.37
2023-01-07T06:28:13.975Z,7.75
2023-01-07T06:30:40.376Z,7.82
2023-01-07T06:33:07.500Z,8.77
2023-01-07T06:35:33.972Z,7.88
2023-01-07T06:38:03.254Z,11.50
2023-01-07T06:40:29.683Z,10.10
2023-01-07T06:42:56.117Z,7.78
2023-01-07T06:45:22.525Z,6.18
2023-01-07T06:47:48.926Z,7.45
2023-01-07T06:50:16.505Z,6.32
2023-01-07T06:52:43.361Z,7.18
2023-01-07T06:55:10.072Z,6.95
2023-01-07T06:57:36.820Z,6.65
2023-01-07T07:00:04.990Z,7.47
2023-01-07T07:02:31.554Z,8.43
2023-01-07T07:04:58.233Z,5.72
2023-01-07T07:07:25.477Z,7.30
2023-01-07T07:09:52.014Z,6.95
2023-01-07T07:12:19.442Z,8.07
2023-01-07T07:17:12.554Z,6.22
2023-01-07T07:19:38.964Z,7.07
2023-01-07T07:22:05.376Z,6.18
2023-01-07T07:24:31.819Z,5.82
2023-01-07T07:26:59.882Z,5.68
2023-01-07T07:29:26.566Z,7.53
2023-01-07T07:31:53.023Z,8.32
2023-01-07T07:34:19.459Z,8.68
2023-01-07T07:36:46.087Z,8.23
2023-01-07T07:39:12.582Z,6.30
2023-01-07T07:41:39.045Z,6.37
2023-01-07T07:44:05.555Z,8.63
2023-01-07T07:46:32.163Z,9.33
2023-01-07T07:48:59.673Z,6.07
2023-01-07T07:53:54.469Z,7.05
2023-01-07T07:56:22.072Z,5.90
2023-01-07T07:58:52.070Z,5.80
2023-01-07T08:01:18.653Z,7.35
2023-01-07T08:03:45.129Z,7.90
2023-01-07T08:06:12.937Z,7.07
2023-01-07T08:08:46.016Z,7.95
2023-01-07T08:11:12.523Z,5.63
2023-01-07T08:13:39.055Z,5.03
2023-01-07T08:16:05.961Z,6.63
2023-01-07T08:18:32.712Z,5.38
2023-01-07T08:20:59.234Z,5.95
2023-01-07T08:23:34.436Z,5.60
2023-01-07T08:26:03.040Z,7.25
2023-01-07T08:28:33.960Z,6.78
2023-01-07T08:31:05.726Z,4.93
2023-01-07T08:33:37.713Z,5.70
2023-01-07T08:36:09.327Z,5.95
2023-01-07T08:38:38.484Z,6.88
2023-01-07T08:41:05.517Z,7.28
2023-01-07T08:43:33.386Z,4.32
2023-01-07T08:46:04.454Z,6.53
2023-01-07T08:48:40.197Z,4.57
2023-01-07T08:51:07.438Z,4.72
2023-01-07T08:53:35.168Z,4.20
2023-01-07T08:56:01.633Z,6.65
2023-01-07T08:58:28.093Z,6.50
2023-01-07T09:00:54.640Z,4.30
2023-01-07T09:03:21.484Z,5.00
2023-01-07T09:05:47.916Z,4.03
2023-01-07T09:08:18.387Z,3.85
2023-01-07T09:10:44.875Z,6.45
2023-01-07T09:13:17.250Z,4.00
2023-01-07T09:15:45.059Z,6.13
2023-01-07T09:18:11.575Z,4.13
2023-01-07T09:20:38.120Z,3.57
2023-01-07T09:23:06.691Z,5.63
2023-01-07T09:25:39.310Z,4.03
2023-01-07T09:28:05.783Z,4.57
2023-01-07T09:30:40.467Z,4.18
2023-01-07T09:33:06.910Z,4.22
2023-01-07T09:35:47.553Z,6.22
2023-01-07T09:38:14.105Z,3.58
2023-01-07T09:40:43.883Z,5.10
2023-01-07T09:43:59.367Z,5.07
2023-01-07T09:46:19.158Z,6.30
2023-01-07T09:48:49.007Z,4.72
2023-01-07T09:51:24.148Z,5.75
2023-01-07T09:53:54.236Z,6.07
2023-01-07T09:56:25.747Z,4.68
2023-01-07T09:58:53.336Z,3.90
2023-01-07T10:01:42.112Z,4.65
2023-01-07T10:04:14.564Z,3.85
2023-01-07T10:06:59.922Z,4.38
2023-01-07T10:09:54.520Z,3.30
2023-01-07T10:13:14.801Z,4.65
2023-01-07T10:18:12.371Z,3.67
2023-01-07T10:20:59.319Z,3.22
2023-01-07T10:23:30.113Z,5.53
2023-01-07T10:25:58.789Z,3.85
2023-01-07T10:28:43.061Z,2.70
2023-01-07T10:31:19.895Z,5.03
2023-01-07T10:33:48.451Z,3.38
2023-01-07T10:36:20.480Z,4.22
2023-01-07T10:39:27.446Z,3.05
2023-01-07T10:42:10.557Z,3.45
2023-01-07T10:44:45.875Z,3.22
2023-01-07T10:47:54.291Z,4.07
2023-01-07T10:50:43.639Z,4.43
2023-01-07T10:53:50.054Z,3.05
2023-01-07T10:56:37.865Z,3.40
2023-01-07T10:59:04.667Z,4.53
2023-01-07T11:01:44.321Z,3.70
2023-01-07T11:04:16.485Z,3.88
2023-01-07T11:07:05.797Z,5.35
2023-01-07T11:09:35.346Z,3.53
2023-01-07T11:12:25.067Z,3.88
2023-01-07T11:14:54.795Z,5.25
2023-01-07T11:17:32.589Z,4.07
2023-01-07T11:19:58.985Z,3.85
2023-01-07T11:22:25.336Z,7.93
2023-01-07T11:24:55.293Z,3.80
2023-01-07T11:27:25.515Z,4.72
2023-01-07T11:30:16.032Z,4.90
2023-01-07T11:32:50.718Z,5.88
2023-01-07T11:35:23.512Z,4.70
2023-01-07T11:37:50.408Z,4.60
2023-01-07T11:40:24.293Z,4.10
2023-01-07T11:42:59.956Z,4.22
2023-01-07T11:45:31.573Z,5.93
2023-01-07T11:48:07.228Z,3.70
2023-01-07T11:50:42.932Z,5.80
2023-01-07T11:53:15.192Z,5.25
2023-01-07T11:55:57.230Z,5.53
2023-01-07T11:58:35.092Z,4.70
2023-01-07T12:03:35.626Z,6.40
2023-01-07T12:06:16.905Z,4.13
2023-01-07T12:08:52.618Z,7.18
2023-01-07T12:11:19.364Z,4.45
2023-01-07T12:13:55.320Z,4.30
2023-01-07T12:16:28.219Z,3.67
2023-01-07T12:19:10.706Z,3.78
2023-01-07T12:22:04.646Z,3.75
2023-01-07T12:24:40.200Z,5.65
2023-01-07T12:27:15.745Z,5.53
2023-01-07T12:30:02.963Z,4.13
2023-01-07T12:32:39.003Z,6.90
2023-01-07T12:35:20.989Z,6.60
2023-01-07T12:38:25.276Z,2.90
2023-01-07T12:41:00.128Z,5.13
2023-01-07T12:43:37.337Z,5.35
2023-01-07T12:46:11.526Z,4.35
2023-01-07T12:49:02.591Z,4.28
2023-01-07T12:51:36.810Z,4.22
2023-01-07T12:54:19.025Z,5.38
2023-01-07T12:56:53.497Z,4.05
2023-01-07T12:59:46.605Z,3.40
2023-01-07T13:02:32.481Z,5.40
2023-01-07T13:05:15.306Z,4.45
2023-01-07T13:07:56.819Z,4.55
2023-01-07T13:10:47.888Z,6.30
2023-01-07T13:13:25.961Z,5.07
2023-01-07T13:15:52.906Z,2.97
2023-01-07T13:18:21.195Z,2.88
2023-01-07T13:20:59.565Z,6.43
2023-01-07T13:23:35.053Z,3.42
2023-01-07T13:26:15.585Z,5.15
2023-01-07T13:29:09.579Z,6.30
2023-01-07T13:31:54.957Z,4.75
2023-01-07T13:34:43.481Z,4.15
2023-01-07T13:39:55.418Z,4.03
2023-01-07T13:42:40.596Z,4.00
2023-01-07T13:45:15.834Z,3.58
2023-01-07T13:47:46.857Z,10.63
2023-01-07T13:50:29.964Z,3.35
2023-01-07T13:53:02.845Z,4.38
2023-01-07T13:55:32.545Z,3.92
2023-01-07T13:57:58.958Z,4.15
2023-01-07T14:00:40.657Z,4.50
2023-01-07T14:03:33.731Z,4.45
2023-01-07T14:06:18.390Z,4.68
2023-01-07T14:08:46.811Z,5.38
2023-01-07T14:11:14.114Z,5.53
2023-01-07T14:16:31.048Z,4.10
2023-01-07T14:19:15.721Z,7.35
2023-01-07T14:22:04.971Z,4.78
2023-01-07T14:24:46.573Z,6.78
2023-01-07T14:27:28.091Z,5.20
2023-01-07T14:30:02.851Z,3.65
2023-01-07T14:32:38.023Z,5.68
2023-01-07T14:35:10.409Z,3.58
2023-01-07T14:37:37.980Z,3.75
2023-01-07T14:40:40.187Z,3.83
2023-01-07T14:43:42.288Z,4.35
2023-01-07T14:46:24.179Z,3.38
2023-01-07T14:49:02.879Z,3.63
2023-01-07T14:51:56.128Z,6.65
2023-01-07T14:54:49.358Z,5.13
2023-01-07T14:57:24.633Z,4.07
2023-01-07T15:00:06.966Z,4.35
2023-01-07T15:02:54.508Z,3.67
2023-01-07T15:05:41.547Z,3.78
2023-01-07T15:08:29.542Z,3.00
2023-01-07T15:11:31.638Z,3.78
2023-01-07T15:14:22.659Z,5.47
2023-01-07T15:16:51.995Z,6.25
2023-01-07T15:19:18.967Z,4.10
2023-01-07T15:21:45.371Z,4.93
2023-01-07T15:24:39.437Z,4.50
2023-01-07T15:27:12.441Z,4.00
2023-01-07T15:30:20.181Z,3.95
2023-01-07T15:33:05.675Z,4.45
2023-01-07T15:35:37.900Z,6.72
2023-01-07T15:38:07.602Z,4.43
2023-01-07T15:40:34.100Z,4.93
2023-01-07T15:43:00.565Z,5.83
2023-01-07T15:45:28.500Z,4.95
2023-01-07T15:48:07.741Z,5.57
2023-01-07T15:50:37.582Z,5.40
2023-01-07T15:53:10.117Z,5.95
2023-01-07T15:55:49.213Z,5.13
2023-01-07T15:58:19.595Z,6.85
2023-01-07T16:00:54.904Z,4.80
2023-01-07T16:03:22.386Z,6.32
2023-01-07T16:05:49.494Z,9.43
2023-01-07T16:08:18.398Z,6.00
2023-01-07T16:11:04.424Z,5.68
2023-01-07T16:13:32.783Z,6.05
2023-01-07T16:16:03.248Z,5.85
2023-01-07T16:18:32.418Z,7.13
2023-01-07T16:21:06.485Z,6.32
2023-01-07T16:23:35.599Z,6.18
2023-01-07T16:26:18.876Z,6.45
2023-01-07T16:28:50.643Z,5.20
2023-01-07T16:31:20.630Z,7.00
2023-01-07T16:33:50.085Z,4.82
2023-01-07T16:36:21.573Z,5.50
2023-01-07T16:38:52.190Z,5.10
2023-01-07T16:41:22.490Z,4.95
2023-01-07T16:43:52.371Z,5.40
2023-01-07T16:46:42.688Z,6.00
2023-01-07T16:49:09.252Z,5.10
2023-01-07T16:51:43.306Z,6.40
2023-01-07T16:54:25.094Z,8.10
2023-01-07T16:57:12.817Z,4.88
2023-01-07T16:59:45.731Z,4.90
2023-01-07T17:02:38.377Z,5.88
2023-01-07T17:05:20.876Z,5.13
2023-01-07T17:07:51.860Z,5.82
2023-01-07T17:10:35.138Z,4.50
2023-01-07T17:13:06.095Z,5.75
2023-01-07T17:15:36.914Z,5.47
2023-01-07T17:18:12.226Z,4.55
2023-01-07T17:20:47.905Z,5.53
2023-01-07T17:23:26.307Z,6.07
2023-01-07T17:26:00.621Z,5.25
2023-01-07T17:28:29.665Z,5.15
2023-01-07T17:30:56.285Z,5.63
2023-01-07T17:33:24.827Z,5.53
2023-01-07T17:35:53.989Z,6.78
2023-01-07T17:38:20.829Z,5.88
2023-01-07T17:40:48.006Z,6.30
2023-01-07T17:43:36.818Z,4.60
2023-01-07T17:46:11.610Z,5.45
2023-01-07T17:48:38.387Z,5.35
2023-01-07T17:51:05.632Z,4.63
2023-01-07T17:53:33.053Z,5.43
2023-01-07T17:58:29.645Z,4.53
2023-01-07T18:00:56.835Z,4.47
2023-01-07T18:03:24.305Z,5.53
2023-01-07T18:05:50.812Z,4.25
2023-01-07T18:08:17.149Z,5.00
2023-01-07T18:11:02.539Z,5.43
2023-01-07T18:13:29.283Z,7.78
2023-01-07T18:15:59.229Z,4.97
2023-01-07T18:18:26.197Z,4.78
2023-01-07T18:20:54.074Z,6.10
2023-01-07T18:23:20.693Z,5.90
2023-01-07T18:25:47.021Z,5.77
2023-01-07T18:28:13.358Z,5.60
2023-01-07T18:30:39.771Z,4.35
2023-01-07T18:33:07.849Z,6.03
2023-01-07T18:35:34.905Z,4.50
2023-01-07T18:38:01.587Z,4.45
2023-01-07T18:40:27.908Z,5.60
2023-01-07T18:42:54.415Z,5.80
2023-01-07T18:45:20.811Z,5.93
2023-01-07T18:47:47.289Z,6.05
2023-01-07T18:50:14.381Z,5.55
2023-01-07T18:52:41.390Z,5.65
2023-01-07T18:55:08.822Z,8.77
2023-01-07T19:00:01.451Z,5.70
2023-01-07T19:02:27.735Z,6.53
2023-01-07T19:04:54.073Z,5.82
2023-01-07T19:07:21.699Z,5.68
2023-01-07T19:09:48.044Z,7.07
2023-01-07T19:12:14.406Z,6.72
2023-01-07T19:14:40.768Z,6.20
2023-01-07T19:17:07.855Z,7.72
2023-01-07T19:19:47.313Z,5.72
2023-01-07T19:22:16.018Z,6.78
2023-01-07T19:24:42.455Z,5.80
2023-01-07T19:27:08.835Z,5.40
2023-01-07T19:29:35.161Z,8.38
2023-01-07T19:32:01.606Z,6.32
2023-01-07T19:34:28.004Z,5.40
2023-01-07T19:36:54.277Z,5.47
2023-01-07T19:39:21.602Z,5.45
2023-01-07T19:41:48.238Z,5.82
2023-01-07T19:44:14.864Z,4.97
2023-01-07T19:46:42.505Z,5.60
2023-01-07T19:49:09.496Z,6.68
2023-01-07T19:51:36.737Z,5.90
2023-01-07T19:54:03.853Z,6.00
2023-01-07T19:56:30.869Z,5.93
2023-01-07T19:58:57.801Z,7.20
2023-01-07T20:01:26.506Z,8.30
2023-01-07T20:03:53.834Z,6.22
2023-01-07T20:06:21.779Z,6.18
2023-01-07T20:08:48.458Z,7.30
2023-01-07T20:11:15.058Z,9.63
2023-01-07T20:13:41.521Z,5.47
2023-01-07T20:16:09.141Z,6.33
2023-01-07T20:18:39.231Z,6.72
2023-01-07T20:21:06.075Z,7.88
2023-01-07T20:23:34.329Z,5.82
2023-01-07T20:26:01.917Z,5.97
2023-01-07T20:28:28.653Z,7.97
2023-01-07T20:30:54.944Z,5.45
2023-01-07T20:33:21.208Z,5.88
2023-01-07T20:35:47.505Z,5.35
2023-01-07T20:38:14.075Z,6.47
2023-01-07T20:40:41.189Z,7.67
2023-01-07T20:43:08.320Z,5.80
2023-01-07T20:45:38.044Z,7.15
2023-01-07T20:48:04.695Z,9.27
2023-01-07T20:50:32.009Z,6.30
2023-01-07T20:52:58.367Z,6.05
2023-01-07T20:55:24.705Z,5.45
2023-01-07T20:57:51.027Z,5.72
2023-01-07T21:00:17.343Z,7.03
2023-01-07T21:02:43.772Z,7.55
2023-01-07T21:05:10.440Z,6.15
2023-01-07T21:07:36.781Z,7.28
2023-01-07T21:10:03.758Z,5.03
2023-01-07T21:12:30.220Z,6.88
2023-01-07T21:14:56.549Z,7.07
2023-01-07T21:17:22.893Z,5.18
2023-01-07T21:19:49.339Z,4.78
2023-01-07T21:22:15.694Z,5.82
2023-01-07T21:24:42.032Z,6.05
2023-01-07T21:27:08.329Z,7.20
2023-01-07T21:29:34.648Z,6.10
2023-01-07T21:32:02.877Z,5.95
2023-01-07T21:34:29.274Z,4.65
2023-01-07T21:36:55.598Z,6.18
2023-01-07T21:39:22.005Z,6.28
2023-01-07T21:41:48.358Z,5.82
2023-01-07T21:44:14.692Z,5.63
2023-01-07T21:46:41.108Z,4.85
2023-01-07T21:49:08.195Z,6.15
2023-01-07T21:51:34.563Z,5.80
2023-01-07T21:54:01.194Z,5.13
2023-01-07T21:56:30.002Z,4.38
2023-01-07T21:58:56.916Z,7.53
2023-01-07T22:01:28.216Z,6.07
2023-01-07T22:03:55.432Z,6.32
2023-01-07T22:06:22.675Z,5.32
2023-01-07T22:08:49.484Z,4.80
2023-01-07T22:11:16.801Z,5.97
2023-01-07T22:13:43.665Z,8.23
2023-01-07T22:16:10.116Z,4.43
2023-01-07T22:18:36.653Z,4.70
2023-01-07T22:21:03.016Z,4.83
2023-01-07T22:23:29.280Z,6.18
2023-01-07T22:25:55.601Z,4.55
2023-01-07T22:28:22.954Z,5.25
2023-01-07T22:30:52.126Z,5.00
2023-01-07T22:33:18.515Z,4.32
2023-01-07T22:35:45.196Z,6.30
2023-01-07T22:38:12.631Z,3.70
2023-01-07T22:43:06.624Z,5.20
2023-01-07T22:45:38.673Z,4.35
2023-01-07T22:48:05.517Z,3.78
2023-01-07T22:50:31.880Z,4.18
2023-01-07T22:52:58.146Z,4.20
2023-01-07T22:55:24.412Z,4.85
2023-01-07T22:57:50.739Z,4.53
2023-01-07T23:00:36.970Z,4.25
2023-01-07T23:03:03.464Z,3.97
2023-01-07T23:05:29.868Z,4.93
2023-01-07T23:07:57.573Z,3.38
2023-01-07T23:10:23.927Z,5.25
2023-01-07T23:12:50.174Z,4.63
2023-01-07T23:15:16.426Z,4.63
2023-01-07T23:17:42.746Z,4.25
2023-01-07T23:20:09.221Z,5.80
2023-01-07T23:22:35.548Z,4.60
2023-01-07T23:25:01.813Z,4.60
2023-01-07T23:27:28.113Z,4.78
2023-01-07T23:29:54.496Z,5.00
2023-01-07T23:32:21.441Z,4.30
2023-01-07T23:34:47.776Z,4.18
2023-01-07T23:37:14.097Z,6.25
2023-01-07T23:39:40.351Z,4.65
2023-01-07T23:42:06.668Z,4.55
2023-01-07T23:44:33.086Z,4.85
2023-01-07T23:46:59.454Z,4.03
2023-01-07T23:49:25.832Z,3.83
2023-01-07T23:51:52.114Z,3.45
2023-01-07T23:54:18.409Z,4.03
2023-01-07T23:56:44.704Z,6.32
2023-01-07T23:59:11.216Z,4.65
